Time;durP1;ratioP1;P1;durP2;ratioP2;P2;SDS_P1;SDS_P2;PMS_P1;PMS_P2;Temp;Humidity;BMP_temperature;BMP_pressure;BME280_temperature;BME280_humidity;BME280_pressure;Samples;Min_cycle;Max_cycle;Signal;HPM_P1;HPM_P2
2023/06/12 00:03:30;;;;;;;8.30;6.20;;;20.60;71.60;;;;;;10232366;28;20220;-72
2023/06/12 00:08:35;;;;;;;7.23;6.17;;;20.60;71.20;;;;;;10217841;28;20285;-71
2023/06/12 00:13:36;;;;;;;6.87;6.00;;;20.60;71.50;;;;;;10220623;28;20314;-70
2023/06/12 00:18:40;;;;;;;8.00;6.27;;;20.70;71.30;;;;;;10219192;28;20261;-71
2023/06/12 00:23:41;;;;;;;8.47;5.90;;;20.60;71.60;;;;;;10224160;28;20772;-71
2023/06/12 00:28:41;;;;;;;8.90;5.87;;;20.60;72.10;;;;;;10214958;28;20327;-70
2023/06/12 00:33:42;;;;;;;9.90;5.67;;;20.50;72.20;;;;;;10234246;28;20224;-71
2023/06/12 00:38:42;;;;;;;7.60;5.53;;;20.50;72.50;;;;;;10219208;28;20231;-71
2023/06/12 00:43:43;;;;;;;9.07;6.30;;;20.50;72.30;;;;;;10222770;28;20243;-71
2023/06/12 00:48:44;;;;;;;7.20;5.80;;;20.50;72.60;;;;;;10217678;28;20859;-71
2023/06/12 00:53:44;;;;;;;6.23;5.63;;;20.40;72.70;;;;;;10224375;28;20230;-71
2023/06/12 00:58:45;;;;;;;7.37;5.17;;;20.30;73.10;;;;;;10221211;28;20703;-70
2023/06/12 01:03:46;;;;;;;6.80;5.63;;;20.20;73.80;;;;;;10227756;28;20337;-72
2023/06/12 01:09:00;;;;;;;6.70;5.87;;;20.10;74.10;;;;;;10214781;28;20618;-72
2023/06/12 01:14:02;;;;;;;6.73;5.43;;;20.00;74.60;;;;;;10215604;28;20227;-72
2023/06/12 01:19:03;;;;;;;8.77;5.73;;;20.00;74.30;;;;;;10221889;28;20235;-71
2023/06/12 01:24:42;;;;;;;6.77;5.63;;;20.00;73.60;;;;;;10214469;28;20234;-72
2023/06/12 01:30:08;;;;;;;9.27;5.40;;;19.90;72.80;;;;;;10225175;28;20290;-72
2023/06/12 01:35:16;;;;;;;6.53;5.27;;;19.90;72.20;;;;;;10220762;28;20236;-71
2023/06/12 01:40:18;;;;;;;6.37;5.13;;;19.90;71.50;;;;;;10228786;28;20254;-71
2023/06/12 01:45:19;;;;;;;8.23;5.40;;;19.90;71.60;;;;;;10215597;28;20644;-70
2023/06/12 01:50:25;;;;;;;8.07;5.23;;;19.80;72.00;;;;;;10219670;28;20249;-71
2023/06/12 01:55:27;;;;;;;7.10;5.37;;;19.80;72.00;;;;;;10222648;28;20227;-71
2023/06/12 02:00:28;;;;;;;5.80;4.83;;;19.70;72.40;;;;;;10216786;28;20239;-71
2023/06/12 02:05:28;;;;;;;6.63;5.10;;;19.60;72.20;;;;;;10225119;28;20242;-72
2023/06/12 02:10:29;;;;;;;5.80;5.20;;;19.60;72.30;;;;;;10219887;28;20307;-71
2023/06/12 02:15:30;;;;;;;6.00;5.00;;;19.60;72.90;;;;;;10218940;28;20310;-70
2023/06/12 02:20:31;;;;;;;5.93;4.93;;;19.60;71.80;;;;;;10216025;28;20251;-71
2023/06/12 02:25:31;;;;;;;7.43;5.13;;;19.60;71.50;;;;;;10217544;28;20306;-71
2023/06/12 02:30:34;;;;;;;6.77;5.27;;;19.60;71.30;;;;;;10231960;28;20263;-70
2023/06/12 02:35:36;;;;;;;5.60;5.00;;;19.60;71.20;;;;;;10222570;28;20220;-71
2023/06/12 02:40:36;;;;;;;5.83;4.63;;;19.60;71.20;;;;;;10229052;28;20234;-71
2023/06/12 02:45:37;;;;;;;10.47;4.97;;;19.60;71.50;;;;;;10225820;28;20219;-72
2023/06/12 02:50:37;;;;;;;6.67;5.00;;;19.60;71.50;;;;;;10224402;28;20224;-71
2023/06/12 02:55:39;;;;;;;5.40;4.90;;;19.50;71.60;;;;;;10229967;28;20215;-72
2023/06/12 03:00:40;;;;;;;5.43;4.80;;;19.50;71.80;;;;;;10230448;28;20659;-70
2023/06/12 03:05:41;;;;;;;5.23;4.50;;;19.40;72.10;;;;;;10232679;28;20432;-71
2023/06/12 03:10:45;;;;;;;7.90;4.53;;;19.40;72.40;;;;;;10235841;28;20309;-71
2023/06/12 03:15:45;;;;;;;5.27;4.77;;;19.30;72.70;;;;;;10225540;28;20220;-71
2023/06/12 03:20:46;;;;;;;5.60;5.10;;;19.30;72.90;;;;;;10230082;28;20235;-72
2023/06/12 03:25:47;;;;;;;5.33;4.67;;;19.10;74.70;;;;;;10226531;28;20351;-71
2023/06/12 03:30:48;;;;;;;5.67;4.57;;;19.00;76.30;;;;;;10229457;28;20689;-70
2023/06/12 03:35:48;;;;;;;6.13;4.77;;;18.90;76.90;;;;;;10226426;28;20223;-71
2023/06/12 03:40:49;;;;;;;5.50;4.80;;;18.80;77.00;;;;;;10226231;28;20234;-71
2023/06/12 03:45:50;;;;;;;6.97;5.23;;;18.80;77.30;;;;;;10222413;28;20230;-71
2023/06/12 03:50:50;;;;;;;5.93;5.00;;;18.80;78.10;;;;;;10226081;28;20245;-70
2023/06/12 03:55:51;;;;;;;6.67;5.70;;;18.80;78.50;;;;;;10231967;28;20722;-70
2023/06/12 04:00:52;;;;;;;5.90;5.00;;;18.70;78.40;;;;;;10219353;28;20246;-71
2023/06/12 04:05:53;;;;;;;5.90;5.30;;;18.80;78.80;;;;;;10222905;28;20250;-71
2023/06/12 04:10:53;;;;;;;8.80;5.60;;;18.90;78.10;;;;;;10229676;28;20667;-71
2023/06/12 04:15:56;;;;;;;6.47;5.00;;;19.00;76.80;;;;;;10218504;28;20803;-71
2023/06/12 04:20:57;;;;;;;7.07;5.03;;;19.10;76.50;;;;;;10223653;28;20897;-71
2023/06/12 04:26:04;;;;;;;6.97;5.60;;;19.20;76.60;;;;;;10223088;28;20215;-71
2023/06/12 04:31:05;;;;;;;8.30;5.10;;;19.40;77.70;;;;;;10237668;28;20273;-72
2023/06/12 04:36:07;;;;;;;5.90;5.23;;;19.50;77.90;;;;;;10223995;28;20779;-71
2023/06/12 04:41:07;;;;;;;5.90;5.10;;;19.90;76.90;;;;;;10217078;28;20232;-71
2023/06/12 04:46:08;;;;;;;6.67;5.47;;;20.10;75.20;;;;;;10231215;28;20214;-71
2023/06/12 04:51:09;;;;;;;5.93;5.30;;;20.00;75.40;;;;;;10215637;28;20224;-72
2023/06/12 04:56:10;;;;;;;6.30;5.70;;;20.00;75.20;;;;;;10227416;28;20242;-71
2023/06/12 05:01:11;;;;;;;6.57;5.30;;;20.00;75.70;;;;;;10223320;28;20305;-72
2023/06/12 05:06:11;;;;;;;7.63;5.00;;;20.40;75.00;;;;;;10222905;28;20683;-72
2023/06/12 05:11:12;;;;;;;7.33;4.77;;;23.10;68.30;;;;;;10222437;28;20223;-71
2023/06/12 05:16:12;;;;;;;5.43;4.93;;;25.90;60.00;;;;;;10229879;28;20233;-70
2023/06/12 05:21:14;;;;;;;5.53;4.80;;;27.90;55.10;;;;;;10217151;28;20238;-71
2023/06/12 05:26:15;;;;;;;7.87;5.47;;;29.40;51.60;;;;;;10222063;28;20262;-71
2023/06/12 05:31:16;;;;;;;8.63;5.13;;;28.40;51.30;;;;;;10214518;28;20241;-71
2023/06/12 05:36:17;;;;;;;7.87;5.17;;;28.10;52.80;;;;;;10220808;28;20237;-72
2023/06/12 05:41:20;;;;;;;5.70;5.20;;;29.00;51.60;;;;;;10214254;28;20541;-71
2023/06/12 05:46:20;;;;;;;7.00;5.23;;;29.10;51.20;;;;;;10223195;28;20210;-71
2023/06/12 05:51:24;;;;;;;5.80;5.20;;;29.50;50.20;;;;;;10220040;28;20215;-71
2023/06/12 05:56:25;;;;;;;7.67;5.60;;;29.70;49.60;;;;;;10215882;28;20329;-72
2023/06/12 06:01:26;;;;;;;14.20;5.03;;;30.00;49.10;;;;;;10226936;28;20233;-71
2023/06/12 06:06:30;;;;;;;6.03;4.83;;;30.60;48.30;;;;;;10217130;28;20706;-71
2023/06/12 06:11:30;;;;;;;7.77;5.67;;;31.40;46.60;;;;;;10226101;28;20231;-71
2023/06/12 06:16:31;;;;;;;7.90;5.10;;;30.30;48.00;;;;;;10222973;28;20744;-71
2023/06/12 06:21:31;;;;;;;8.17;5.60;;;29.90;47.60;;;;;;10231065;28;20314;-71
2023/06/12 06:26:32;;;;;;;7.13;5.47;;;30.00;47.90;;;;;;10225466;28;20235;-71
2023/06/12 06:31:33;;;;;;;7.43;5.47;;;29.80;48.00;;;;;;10231140;28;20223;-70
2023/06/12 06:36:33;;;;;;;8.23;4.97;;;29.60;48.10;;;;;;10227332;28;20230;-71
2023/06/12 06:41:34;;;;;;;6.20;5.60;;;30.00;47.80;;;;;;10228360;28;20245;-71
2023/06/12 06:46:35;;;;;;;7.23;5.40;;;30.00;46.60;;;;;;10227491;28;20710;-71
2023/06/12 06:51:36;;;;;;;7.80;5.50;;;29.90;47.70;;;;;;10230407;28;20707;-70
2023/06/12 06:56:37;;;;;;;5.50;5.07;;;30.30;47.90;;;;;;10227284;28;20237;-71
2023/06/12 07:01:39;;;;;;;12.03;5.90;;;30.80;47.50;;;;;;10232844;28;20725;-71
2023/06/12 07:06:40;;;;;;;6.33;5.63;;;31.30;46.40;;;;;;10229782;28;20220;-70
2023/06/12 07:11:40;;;;;;;7.93;5.17;;;31.50;45.80;;;;;;10223121;28;20222;-72
2023/06/12 07:16:41;;;;;;;6.10;5.60;;;31.90;45.80;;;;;;10224494;28;20219;-71
2023/06/12 07:21:41;;;;;;;8.57;5.57;;;31.70;45.90;;;;;;10224969;28;20231;-72
2023/06/12 07:26:42;;;;;;;5.57;5.03;;;32.30;45.40;;;;;;10220841;28;20220;-71
2023/06/12 07:31:43;;;;;;;5.50;4.47;;;32.70;45.10;;;;;;10228303;28;20231;-71
2023/06/12 07:36:44;;;;;;;5.93;4.47;;;33.50;44.50;;;;;;10225376;28;20235;-72
2023/06/12 07:41:45;;;;;;;6.33;5.73;;;34.00;42.30;;;;;;10216780;28;20251;-72
2023/06/12 07:46:45;;;;;;;5.67;5.17;;;33.80;43.30;;;;;;10226385;28;20257;-71
2023/06/12 07:51:46;;;;;;;5.20;4.70;;;33.10;43.70;;;;;;10222120;28;20227;-73
2023/06/12 07:56:46;;;;;;;9.20;4.87;;;34.10;43.30;;;;;;10232877;28;20288;-72
2023/06/12 08:01:47;;;;;;;7.40;5.00;;;33.90;43.00;;;;;;10219588;28;20769;-72
2023/06/12 08:06:48;;;;;;;4.77;4.37;;;33.90;43.50;;;;;;10234266;28;20231;-72
2023/06/12 08:11:48;;;;;;;5.00;4.50;;;34.50;43.40;;;;;;10219195;28;20645;-73
2023/06/12 08:16:49;;;;;;;5.63;4.80;;;34.50;42.50;;;;;;10220329;28;20231;-71
2023/06/12 08:21:49;;;;;;;5.03;4.60;;;34.80;42.20;;;;;;10218780;28;20235;-71
2023/06/12 08:26:50;;;;;;;5.13;4.63;;;35.60;41.10;;;;;;10221484;28;20254;-71
2023/06/12 08:31:51;;;;;;;5.50;4.60;;;36.30;40.30;;;;;;10218647;28;20228;-72
2023/06/12 08:36:53;;;;;;;6.83;4.80;;;36.50;40.40;;;;;;10229394;28;20222;-72
2023/06/12 08:41:57;;;;;;;6.03;4.70;;;36.90;39.90;;;;;;10230114;28;20568;-71
2023/06/12 08:47:01;;;;;;;7.43;5.20;;;36.30;40.40;;;;;;10224182;28;20228;-71
2023/06/12 08:52:02;;;;;;;4.57;4.17;;;36.00;40.80;;;;;;10238303;28;20679;-73
2023/06/12 08:57:06;;;;;;;5.17;4.67;;;36.40;40.60;;;;;;10307637;28;20231;-73
2023/06/12 09:02:10;;;;;;;5.80;4.50;;;35.00;41.50;;;;;;10233241;28;20223;-71
2023/06/12 09:07:17;;;;;;;5.80;4.47;;;35.30;41.60;;;;;;10222165;28;20251;-71
2023/06/12 09:12:17;;;;;;;6.73;4.87;;;35.00;42.40;;;;;;10227806;28;20227;-72
2023/06/12 09:17:18;;;;;;;6.60;4.60;;;35.70;41.30;;;;;;10228487;28;20460;-70
2023/06/12 09:22:21;;;;;;;5.50;4.83;;;36.60;40.20;;;;;;10220570;28;20295;-71
2023/06/12 09:27:21;;;;;;;5.30;4.73;;;37.10;39.90;;;;;;10215530;28;20231;-72
2023/06/12 09:32:29;;;;;;;6.13;4.87;;;35.70;41.10;;;;;;10219815;28;20231;-71
2023/06/12 09:37:31;;;;;;;5.63;4.50;;;35.60;40.60;;;;;;10221889;28;20323;-71
2023/06/12 09:42:35;;;;;;;7.63;4.80;;;36.80;39.60;;;;;;10222549;28;20232;-71
2023/06/12 09:47:47;;;;;;;7.33;4.60;;;36.50;39.20;;;;;;10228848;28;20231;-72
2023/06/12 09:52:49;;;;;;;5.40;4.40;;;37.50;37.70;;;;;;10225389;28;20320;-72
2023/06/12 09:57:52;;;;;;;7.80;4.60;;;35.30;39.00;;;;;;10228914;28;20223;-72
2023/06/12 10:03:00;;;;;;;5.83;4.83;;;35.20;38.30;;;;;;10233260;28;20230;-72
2023/06/12 10:08:03;;;;;;;6.20;4.80;;;34.40;39.90;;;;;;10235657;28;20306;-72
2023/06/12 10:13:04;;;;;;;6.23;5.10;;;35.20;39.10;;;;;;10225475;28;20694;-71
2023/06/12 10:18:09;;;;;;;7.03;5.13;;;33.70;41.50;;;;;;10228137;28;20289;-71
2023/06/12 10:23:11;;;;;;;4.63;4.23;;;36.10;37.20;;;;;;10221408;28;20220;-71
2023/06/12 10:28:12;;;;;;;7.57;4.57;;;37.00;35.30;;;;;;10228088;28;20220;-71
2023/06/12 10:33:15;;;;;;;7.10;5.40;;;35.80;35.50;;;;;;10227328;28;20302;-71
2023/06/12 10:38:20;;;;;;;5.87;5.30;;;33.00;38.20;;;;;;10226836;28;20231;-72
2023/06/12 10:43:24;;;;;;;5.57;5.07;;;33.40;35.40;;;;;;10226865;28;20255;-72
2023/06/12 10:48:24;;;;;;;8.20;5.00;;;33.10;37.30;;;;;;10231045;28;20239;-72
2023/06/12 10:53:31;;;;;;;8.10;4.70;;;34.80;35.70;;;;;;10233390;28;20234;-72
2023/06/12 10:58:37;;;;;;;6.73;4.93;;;34.00;33.80;;;;;;10239778;28;20220;-71
2023/06/12 11:03:39;;;;;;;5.77;5.03;;;35.00;33.50;;;;;;10223343;28;20265;-73
2023/06/12 11:08:45;;;;;;;7.00;4.93;;;35.40;33.20;;;;;;10225275;28;20231;-72
2023/06/12 11:13:46;;;;;;;6.13;4.67;;;36.00;33.50;;;;;;10231064;28;20262;-73
2023/06/12 11:19:04;;;;;;;5.30;4.90;;;36.10;32.20;;;;;;10228915;28;20227;-72
2023/06/12 11:24:06;;;;;;;8.10;4.80;;;34.70;33.60;;;;;;10219188;28;20228;-72
2023/06/12 11:29:16;;;;;;;5.90;5.23;;;35.40;34.00;;;;;;10225909;28;20251;-72
2023/06/12 11:34:16;;;;;;;5.83;4.87;;;35.10;33.80;;;;;;10219774;28;20231;-71
2023/06/12 11:39:18;;;;;;;9.03;5.77;;;35.00;33.20;;;;;;10225939;28;20590;-71
2023/06/12 11:44:20;;;;;;;6.13;5.53;;;31.80;36.60;;;;;;10225359;28;20248;-72
2023/06/12 11:49:20;;;;;;;8.90;5.47;;;30.80;38.90;;;;;;10223811;28;20246;-71
2023/06/12 11:54:21;;;;;;;10.17;5.23;;;30.00;39.70;;;;;;10218144;28;20263;-71
2023/06/12 11:59:25;;;;;;;7.23;5.73;;;29.70;42.00;;;;;;10222634;28;20235;-72
2023/06/12 12:04:26;;;;;;;12.60;5.50;;;29.20;41.80;;;;;;10221592;28;20223;-73
2023/06/12 12:09:27;;;;;;;6.27;4.97;;;29.40;42.50;;;;;;10225820;28;20235;-72
2023/06/12 12:14:28;;;;;;;6.60;5.17;;;29.40;42.30;;;;;;10233893;28;20243;-72
2023/06/12 12:19:29;;;;;;;7.17;5.73;;;29.10;41.90;;;;;;10225436;28;20715;-71
2023/06/12 12:24:37;;;;;;;6.53;5.57;;;28.90;41.40;;;;;;10222740;28;20231;-70
2023/06/12 12:29:37;;;;;;;11.20;5.50;;;28.70;43.10;;;;;;10215407;28;20228;-71
2023/06/12 12:34:41;;;;;;;5.80;4.70;;;28.90;42.80;;;;;;10228352;28;20578;-72
2023/06/12 12:39:41;;;;;;;6.90;5.27;;;29.10;42.30;;;;;;10221996;28;20262;-72
2023/06/12 12:44:48;;;;;;;6.77;4.83;;;28.90;43.30;;;;;;10218788;28;20239;-72
2023/06/12 12:49:48;;;;;;;5.97;4.80;;;28.90;43.00;;;;;;10225370;28;20315;-72
2023/06/12 12:54:50;;;;;;;5.00;4.43;;;28.50;40.60;;;;;;10225724;28;20227;-71
2023/06/12 12:59:51;;;;;;;9.63;4.90;;;28.50;39.90;;;;;;10217004;28;20246;-72
2023/06/12 13:04:51;;;;;;;7.27;4.77;;;28.40;39.70;;;;;;10227938;28;20227;-70
2023/06/12 13:09:54;;;;;;;5.97;4.67;;;28.30;41.80;;;;;;10217446;28;20818;-71
2023/06/12 13:14:54;;;;;;;8.30;4.60;;;28.30;41.30;;;;;;10221859;28;20700;-72
2023/06/12 13:19:55;;;;;;;6.33;4.33;;;28.00;41.40;;;;;;10229304;28;20238;-71
2023/06/12 13:24:55;;;;;;;6.97;4.57;;;28.30;41.40;;;;;;10218669;28;20232;-71
2023/06/12 13:29:56;;;;;;;5.07;3.97;;;28.60;40.60;;;;;;10214252;28;20227;-71
2023/06/12 13:34:56;;;;;;;5.23;4.07;;;28.70;40.40;;;;;;10220193;28;20706;-71
2023/06/12 13:39:57;;;;;;;6.73;4.30;;;28.70;39.80;;;;;;10216276;28;20223;-71
2023/06/12 13:44:57;;;;;;;6.77;4.60;;;28.70;40.00;;;;;;10219791;28;20234;-72
2023/06/12 13:49:58;;;;;;;5.33;4.23;;;28.40;39.40;;;;;;10220391;28;20223;-72
2023/06/12 13:55:01;;;;;;;4.93;4.43;;;28.40;40.80;;;;;;10212925;28;20598;-72
2023/06/12 14:00:04;;;;;;;5.60;4.57;;;28.50;40.80;;;;;;10219528;28;20309;-71
2023/06/12 14:05:06;;;;;;;6.97;4.70;;;28.50;41.00;;;;;;10222640;28;20224;-72
2023/06/12 14:10:08;;;;;;;5.07;4.60;;;28.20;40.40;;;;;;10220726;28;20275;-72
2023/06/12 14:15:09;;;;;;;7.53;4.83;;;28.30;40.40;;;;;;10212394;28;20573;-72
2023/06/12 14:20:10;;;;;;;7.67;4.73;;;28.40;40.30;;;;;;10220175;28;20212;-72
2023/06/12 14:25:11;;;;;;;10.23;4.50;;;28.30;39.60;;;;;;10212712;28;20680;-71
2023/06/12 14:30:12;;;;;;;5.63;4.10;;;28.20;40.00;;;;;;10230817;28;20244;-71
2023/06/12 14:35:13;;;;;;;5.67;4.83;;;28.20;39.80;;;;;;10232967;28;20187;-71
2023/06/12 14:40:14;;;;;;;6.13;4.50;;;28.20;41.30;;;;;;10226214;28;20216;-71
2023/06/12 14:45:14;;;;;;;4.33;3.93;;;28.20;41.60;;;;;;10226175;28;20214;-72
2023/06/12 14:50:15;;;;;;;5.30;4.67;;;28.00;40.30;;;;;;10238053;28;20188;-71
2023/06/12 14:55:16;;;;;;;5.97;4.67;;;28.00;41.80;;;;;;10226192;28;20192;-71
2023/06/12 15:00:17;;;;;;;4.90;4.30;;;27.90;41.50;;;;;;10226340;28;20306;-71
2023/06/12 15:05:17;;;;;;;4.83;4.40;;;28.00;41.50;;;;;;10226275;28;20173;-71
2023/06/12 15:10:18;;;;;;;7.50;4.50;;;27.90;42.40;;;;;;10238061;28;20184;-71
2023/06/12 15:15:19;;;;;;;6.03;5.07;;;27.80;42.70;;;;;;10230647;28;20180;-71
2023/06/12 15:20:20;;;;;;;6.37;4.60;;;27.80;42.70;;;;;;10218856;28;20679;-71
2023/06/12 15:25:20;;;;;;;5.70;5.10;;;27.80;42.40;;;;;;10231248;28;20192;-71
2023/06/12 15:30:21;;;;;;;5.57;4.80;;;27.90;44.00;;;;;;10217725;28;20199;-71
2023/06/12 15:35:22;;;;;;;8.67;5.00;;;27.90;43.70;;;;;;10223563;28;20286;-72
2023/06/12 15:40:22;;;;;;;5.80;4.80;;;27.50;43.20;;;;;;10218151;28;20297;-72
2023/06/12 15:45:23;;;;;;;5.20;4.80;;;27.40;43.60;;;;;;10226853;28;20338;-71
2023/06/12 15:50:23;;;;;;;8.10;5.20;;;27.50;43.40;;;;;;10226916;28;20198;-72
2023/06/12 15:55:24;;;;;;;6.17;5.03;;;27.70;43.70;;;;;;10223993;28;20223;-72
2023/06/12 16:00:25;;;;;;;9.23;4.70;;;27.60;44.30;;;;;;10219688;28;20239;-72
2023/06/12 16:05:29;;;;;;;5.83;4.70;;;27.50;43.90;;;;;;10226103;28;20224;-72
2023/06/12 16:10:30;;;;;;;6.60;4.90;;;27.50;44.60;;;;;;10231480;28;20231;-72
2023/06/12 16:15:31;;;;;;;5.00;4.50;;;27.60;45.10;;;;;;10219170;28;20219;-72
2023/06/12 16:20:31;;;;;;;5.80;4.50;;;27.60;43.00;;;;;;10229730;28;20227;-71
2023/06/12 16:25:32;;;;;;;7.17;5.00;;;27.50;43.00;;;;;;10226979;28;20226;-71
2023/06/12 16:30:33;;;;;;;9.13;4.40;;;27.40;44.50;;;;;;10223148;28;20326;-72
2023/06/12 16:35:33;;;;;;;5.43;5.00;;;27.30;44.20;;;;;;10219945;28;20219;-70
2023/06/12 16:40:34;;;;;;;5.90;5.33;;;27.40;43.90;;;;;;10224387;28;20234;-73
2023/06/12 16:45:34;;;;;;;5.97;5.00;;;27.30;44.00;;;;;;10229503;28;20722;-72
2023/06/12 16:50:35;;;;;;;7.60;4.90;;;27.30;44.30;;;;;;10230542;28;20223;-72
2023/06/12 16:55:36;;;;;;;6.23;4.83;;;27.30;44.10;;;;;;10227416;28;20788;-72
2023/06/12 17:00:36;;;;;;;7.70;5.03;;;27.30;44.30;;;;;;10221520;28;20601;-72
2023/06/12 17:05:37;;;;;;;6.37;4.40;;;27.20;43.90;;;;;;10219269;28;20278;-72
2023/06/12 17:10:38;;;;;;;8.33;4.67;;;27.00;43.80;;;;;;10222919;28;20226;-72
2023/06/12 17:15:39;;;;;;;6.20;4.80;;;27.00;43.70;;;;;;10226200;28;20623;-70
2023/06/12 17:20:39;;;;;;;5.13;4.27;;;26.90;43.80;;;;;;10223674;28;20326;-71
2023/06/12 17:25:40;;;;;;;5.07;4.07;;;26.80;43.80;;;;;;10223370;28;20235;-71
2023/06/12 17:30:42;;;;;;;4.73;4.20;;;26.80;42.90;;;;;;10218578;28;20230;-71
2023/06/12 17:35:44;;;;;;;5.07;4.33;;;26.80;42.50;;;;;;10218682;28;20718;-71
2023/06/12 17:40:44;;;;;;;6.43;4.10;;;26.80;43.20;;;;;;10223717;28;20234;-71
2023/06/12 17:45:45;;;;;;;5.00;4.57;;;26.70;43.50;;;;;;10220765;28;20725;-71
2023/06/12 17:50:46;;;;;;;4.53;4.03;;;26.70;44.00;;;;;;10230737;28;20219;-71
2023/06/12 17:55:46;;;;;;;5.40;4.37;;;26.60;44.40;;;;;;10223819;28;20265;-70
2023/06/12 18:00:47;;;;;;;4.97;4.47;;;26.50;44.80;;;;;;10224601;28;20285;-71
2023/06/12 18:05:47;;;;;;;7.30;4.30;;;26.40;44.00;;;;;;10230074;28;20227;-71
2023/06/12 18:10:48;;;;;;;6.13;4.67;;;26.40;44.40;;;;;;10229374;28;20232;-71
2023/06/12 18:15:49;;;;;;;5.20;4.57;;;26.30;44.20;;;;;;10234103;28;20228;-72
2023/06/12 18:20:50;;;;;;;4.77;4.37;;;26.20;44.30;;;;;;10229994;28;20235;-72
2023/06/12 18:25:50;;;;;;;5.50;4.10;;;26.10;44.90;;;;;;10236711;28;20872;-71
2023/06/12 18:30:51;;;;;;;4.93;4.47;;;26.10;45.40;;;;;;10226528;28;20690;-72
2023/06/12 18:35:52;;;;;;;6.83;4.57;;;26.00;45.20;;;;;;10228328;28;20224;-72
2023/06/12 18:40:52;;;;;;;6.70;4.47;;;25.90;45.60;;;;;;10225296;28;20241;-71
2023/06/12 18:45:53;;;;;;;4.70;4.30;;;25.80;45.90;;;;;;10230772;28;20234;-72
2023/06/12 18:50:54;;;;;;;5.47;4.37;;;25.70;46.00;;;;;;10222333;28;20696;-71
2023/06/12 18:55:54;;;;;;;7.23;4.47;;;25.50;46.20;;;;;;10234672;28;20224;-71
2023/06/12 19:00:55;;;;;;;4.47;4.07;;;25.50;46.60;;;;;;10236525;28;20317;-70
2023/06/12 19:05:56;;;;;;;6.13;4.17;;;25.30;46.90;;;;;;10230315;28;20224;-70
2023/06/12 19:10:56;;;;;;;4.87;4.37;;;25.20;47.30;;;;;;10226212;28;20234;-70
2023/06/12 19:16:02;;;;;;;6.57;4.73;;;25.10;47.60;;;;;;10228361;28;20289;-71
2023/06/12 19:21:03;;;;;;;5.27;4.70;;;25.00;47.40;;;;;;10228363;28;20240;-70
2023/06/12 19:26:05;;;;;;;7.80;4.70;;;24.90;48.00;;;;;;10227196;28;21078;-70
2023/06/12 19:31:06;;;;;;;6.27;4.80;;;24.80;48.30;;;;;;10226464;28;20228;-71
2023/06/12 19:36:06;;;;;;;8.60;4.70;;;24.60;48.80;;;;;;10218731;28;20230;-71
2023/06/12 19:41:07;;;;;;;6.93;4.60;;;24.50;49.10;;;;;;10224829;28;20243;-71
2023/06/12 19:46:07;;;;;;;7.03;4.60;;;24.30;49.10;;;;;;10225600;28;20326;-70
2023/06/12 19:51:08;;;;;;;5.43;4.00;;;24.20;48.80;;;;;;10230280;28;20231;-70
2023/06/12 19:56:09;;;;;;;5.67;4.30;;;24.20;49.10;;;;;;10218688;28;20231;-72
2023/06/12 20:01:10;;;;;;;5.17;4.57;;;24.10;49.40;;;;;;10226104;28;20230;-71
2023/06/12 20:06:11;;;;;;;9.77;4.80;;;23.90;49.50;;;;;;10217344;28;20285;-71
2023/06/12 20:11:12;;;;;;;7.50;4.57;;;23.90;49.20;;;;;;10234290;28;20292;-71
2023/06/12 20:16:13;;;;;;;5.77;4.93;;;23.80;49.00;;;;;;10217936;28;20223;-70
2023/06/12 20:21:16;;;;;;;5.90;4.37;;;23.70;49.10;;;;;;10226365;28;20236;-70
2023/06/12 20:26:16;;;;;;;5.77;4.80;;;23.50;49.50;;;;;;10218358;28;20231;-71
2023/06/12 20:31:17;;;;;;;5.47;4.70;;;23.30;50.40;;;;;;10224656;28;20317;-71
2023/06/12 20:36:17;;;;;;;7.13;5.07;;;23.20;50.40;;;;;;10224209;28;20294;-71
2023/06/12 20:41:18;;;;;;;6.50;4.50;;;23.10;50.90;;;;;;10233875;28;20242;-70
2023/06/12 20:46:19;;;;;;;8.97;4.40;;;23.10;51.60;;;;;;10218042;28;20743;-71
2023/06/12 20:51:19;;;;;;;7.27;4.27;;;22.90;51.90;;;;;;10223326;28;20253;-71
2023/06/12 20:56:20;;;;;;;7.73;4.73;;;22.90;52.00;;;;;;10224326;28;20233;-71
2023/06/12 21:01:21;;;;;;;6.60;4.90;;;22.80;53.70;;;;;;10219599;28;20231;-72
2023/06/12 21:06:22;;;;;;;10.53;4.80;;;22.50;56.80;;;;;;10230440;28;20717;-71
2023/06/12 21:11:31;;;;;;;5.60;5.10;;;22.20;57.30;;;;;;10222500;28;20225;-71
2023/06/12 21:16:36;;;;;;;5.17;4.67;;;22.10;56.80;;;;;;10225619;28;20228;-70
2023/06/12 21:21:36;;;;;;;6.53;4.57;;;22.00;56.40;;;;;;10229573;28;20269;-71
2023/06/12 21:26:37;;;;;;;5.33;4.80;;;21.90;55.70;;;;;;10219450;28;20237;-72
2023/06/12 21:31:37;;;;;;;8.13;5.00;;;21.90;56.20;;;;;;10226686;28;20254;-71
2023/06/12 21:36:38;;;;;;;8.17;4.43;;;21.80;56.50;;;;;;10216191;28;20721;-71
2023/06/12 21:41:39;;;;;;;6.37;4.80;;;21.80;57.00;;;;;;10213744;28;20241;-71
2023/06/12 21:46:40;;;;;;;7.03;5.20;;;21.70;57.20;;;;;;10224947;28;20234;-71
2023/06/12 21:51:43;;;;;;;5.97;5.17;;;21.60;57.40;;;;;;10224045;28;20222;-71
2023/06/12 21:56:46;;;;;;;8.13;5.70;;;21.50;57.60;;;;;;10213983;28;20235;-70
2023/06/12 22:01:47;;;;;;;5.90;4.80;;;21.40;58.00;;;;;;10217421;28;20580;-72
2023/06/12 22:06:47;;;;;;;7.10;5.17;;;21.30;58.20;;;;;;10218125;28;20238;-71
2023/06/12 22:11:49;;;;;;;10.90;5.47;;;21.20;58.30;;;;;;10216735;28;20232;-71
2023/06/12 22:16:49;;;;;;;6.27;4.77;;;21.00;58.80;;;;;;10222732;28;20236;-71
2023/06/12 22:21:50;;;;;;;9.53;4.90;;;20.90;58.70;;;;;;10213265;28;20232;-72
2023/06/12 22:26:50;;;;;;;9.67;5.97;;;20.70;59.00;;;;;;10225897;28;20220;-72
2023/06/12 22:31:52;;;;;;;7.60;5.20;;;20.60;58.70;;;;;;10216091;28;20240;-71
2023/06/12 22:36:53;;;;;;;6.80;4.67;;;20.60;59.00;;;;;;10218403;28;20223;-70
2023/06/12 22:41:53;;;;;;;7.30;5.23;;;20.60;58.70;;;;;;10219951;28;20231;-71
2023/06/12 22:46:54;;;;;;;7.13;5.23;;;20.60;58.40;;;;;;10214604;28;20239;-71
2023/06/12 22:51:57;;;;;;;8.10;5.63;;;20.60;58.30;;;;;;10233103;28;20223;-71
2023/06/12 22:56:57;;;;;;;5.20;4.70;;;20.60;58.30;;;;;;10227046;28;20272;-71
2023/06/12 23:02:01;;;;;;;6.40;5.07;;;20.50;58.60;;;;;;10221288;28;20776;-71
2023/06/12 23:07:05;;;;;;;6.90;5.30;;;20.40;58.30;;;;;;10235201;28;20219;-72
2023/06/12 23:12:07;;;;;;;5.23;4.67;;;20.30;58.70;;;;;;10220525;28;20722;-72
2023/06/12 23:17:07;;;;;;;5.77;4.67;;;20.20;58.90;;;;;;10230564;28;20235;-72
2023/06/12 23:22:08;;;;;;;8.87;5.13;;;20.10;59.00;;;;;;10226967;28;20236;-71
2023/06/12 23:27:11;;;;;;;5.40;4.87;;;20.00;59.30;;;;;;10226007;28;20224;-72
2023/06/12 23:32:12;;;;;;;7.03;5.10;;;19.90;59.80;;;;;;10219381;28;20236;-71
2023/06/12 23:37:13;;;;;;;7.87;4.80;;;19.80;60.00;;;;;;10233916;28;20681;-72
2023/06/12 23:42:17;;;;;;;8.20;5.07;;;19.70;60.30;;;;;;10219907;28;20334;-72
2023/06/12 23:47:18;;;;;;;8.53;5.00;;;19.60;60.50;;;;;;10226823;28;20243;-72
2023/06/12 23:52:19;;;;;;;6.57;4.80;;;19.60;60.40;;;;;;10225578;28;20582;-72
2023/06/12 23:57:23;;;;;;;7.67;5.20;;;19.50;60.10;;;;;;10222720;28;20322;-71
